createdAt,value
2019-03-10T00:03:06.604Z,57.8
2019-03-10T00:08:08.427Z,56.9
2019-03-10T00:13:06.605Z,56
2019-03-10T00:18:06.621Z,55.4
2019-03-10T00:23:06.824Z,55.7
2019-03-10T00:28:06.635Z,56.7
2019-03-10T00:33:06.740Z,57.2
2019-03-10T00:38:06.622Z,57.1
2019-03-10T00:43:06.880Z,57.5
2019-03-10T00:48:06.630Z,58.4
2019-03-10T00:53:06.654Z,59.3
2019-03-10T00:58:06.772Z,58.6
2019-03-10T01:03:06.599Z,60.3
2019-03-10T01:08:06.821Z,60.1
2019-03-10T01:13:06.653Z,60.1
2019-03-10T01:18:06.655Z,60.4
2019-03-10T01:23:06.831Z,60.8
2019-03-10T01:28:06.863Z,62.2
2019-03-10T01:33:06.784Z,62.2
2019-03-10T01:38:06.663Z,62.8
2019-03-10T01:43:06.868Z,62.3
2019-03-10T01:48:06.672Z,63.4
2019-03-10T01:53:06.764Z,63.1
2019-03-10T01:58:06.668Z,62.8
2019-03-10T02:03:06.905Z,62.9
2019-03-10T02:08:06.806Z,63.9
2019-03-10T02:13:06.890Z,63.8
2019-03-10T02:18:06.907Z,64.2
2019-03-10T02:23:06.684Z,64.2
2019-03-10T02:28:06.860Z,65
2019-03-10T02:33:06.915Z,66
2019-03-10T02:38:06.954Z,66.6
2019-03-10T02:43:06.866Z,66.7
2019-03-10T02:48:06.931Z,67.9
2019-03-10T02:53:06.826Z,67.4
2019-03-10T02:58:06.874Z,68.8
2019-03-10T03:03:06.925Z,68.9
2019-03-10T03:08:06.718Z,69.3
2019-03-10T03:13:06.860Z,69.7
2019-03-10T03:18:06.929Z,69.4
2019-03-10T03:23:06.942Z,70.4
2019-03-10T03:28:06.896Z,70.2
2019-03-10T03:33:06.791Z,69.6
2019-03-10T03:38:06.948Z,70.8
2019-03-10T03:43:06.872Z,70.8
2019-03-10T03:48:06.736Z,69.4
2019-03-10T03:53:06.955Z,69.7
2019-03-10T03:58:06.722Z,69.9
2019-03-10T04:03:06.908Z,70.2
2019-03-10T04:08:06.992Z,69.9
2019-03-10T04:13:06.742Z,69.8
2019-03-10T04:18:06.912Z,70.9
2019-03-10T04:23:06.876Z,70.6
2019-03-10T04:28:06.751Z,70.9
2019-03-10T04:33:06.906Z,69.5
2019-03-10T04:38:06.945Z,70.1
2019-03-10T04:43:06.990Z,69.6
2019-03-10T04:48:06.913Z,70.5
2019-03-10T04:53:06.942Z,69.8
2019-03-10T04:58:06.993Z,69.3
2019-03-10T05:03:06.882Z,68.7
2019-03-10T05:08:06.946Z,69
2019-03-10T05:13:06.775Z,68.5
2019-03-10T05:18:06.785Z,67.8
2019-03-10T05:23:06.902Z,67.1
2019-03-10T05:28:06.989Z,65.7
2019-03-10T05:33:06.791Z,63.7
2019-03-10T05:38:06.791Z,68.5
2019-03-10T05:43:06.978Z,68.5
2019-03-10T05:48:07.032Z,69
2019-03-10T05:53:06.892Z,70.1
2019-03-10T05:58:06.800Z,71.8
2019-03-10T06:03:07.068Z,70.2
2019-03-10T06:08:06.807Z,68
2019-03-10T06:13:06.975Z,68.3
2019-03-10T06:18:14.272Z,66.7
2019-03-10T06:23:06.942Z,66.8
2019-03-10T06:28:06.809Z,66.2
2019-03-10T06:33:07.026Z,65.9
2019-03-10T06:38:06.928Z,66.9
2019-03-10T06:43:06.809Z,66.9
2019-03-10T06:48:07.027Z,69.1
2019-03-10T06:53:06.854Z,68.5
2019-03-10T06:58:06.845Z,69.3
2019-03-10T07:03:06.941Z,70.1
2019-03-10T07:08:06.830Z,69.3
2019-03-10T07:13:06.839Z,70.6
2019-03-10T07:18:07.008Z,69.7
2019-03-10T07:23:06.842Z,69.8
2019-03-10T07:28:06.978Z,69
2019-03-10T07:33:06.857Z,68.6
2019-03-10T07:38:06.857Z,70.1
2019-03-10T07:43:06.874Z,70.5
2019-03-10T07:48:06.886Z,72.4
2019-03-10T07:53:06.876Z,73.3
2019-03-10T07:58:06.871Z,75.7
2019-03-10T08:03:06.887Z,74.1
2019-03-10T08:08:06.870Z,74.9
2019-03-10T08:13:07.826Z,75.3
2019-03-10T08:18:06.867Z,75.8
2019-03-10T08:23:06.864Z,76.7
2019-03-10T08:28:06.876Z,76.2
2019-03-10T08:33:06.887Z,76.5
2019-03-10T08:38:06.895Z,78.9
2019-03-10T08:43:06.906Z,77.4
2019-03-10T08:48:07.632Z,78.4
2019-03-10T08:53:06.913Z,79.9
2019-03-10T08:58:06.885Z,77.9
2019-03-10T09:03:06.913Z,78.3
2019-03-10T09:08:06.912Z,79.3
2019-03-10T09:13:07.023Z,80.4
2019-03-10T09:18:06.907Z,81
2019-03-10T09:23:06.912Z,85.2
2019-03-10T09:28:06.944Z,81.7
2019-03-10T09:33:06.912Z,84.4
2019-03-10T09:38:06.907Z,83.8
2019-03-10T09:43:07.020Z,83.7
2019-03-10T09:48:06.969Z,84.7
2019-03-10T09:53:06.923Z,84.5
2019-03-10T09:58:09.912Z,84.7
2019-03-10T10:03:06.982Z,83.3
2019-03-10T10:08:06.917Z,84.5
2019-03-10T10:13:06.947Z,84.2
2019-03-10T10:18:06.950Z,83.4
2019-03-10T10:23:07.052Z,83.4
2019-03-10T10:28:07.004Z,82.8
2019-03-10T10:33:06.946Z,83.8
2019-03-10T10:38:19.166Z,85.1
2019-03-10T10:43:06.963Z,84.3
2019-03-10T10:48:07.018Z,84.8
2019-03-10T10:53:06.984Z,84.4
2019-03-10T10:58:07.068Z,86.4
2019-03-10T11:03:12.521Z,85.5
2019-03-10T11:08:06.980Z,84.6
2019-03-10T11:13:07.001Z,85.5
2019-03-10T11:18:10.024Z,85.1
2019-03-10T11:23:07.190Z,85.5
2019-03-10T11:28:06.962Z,86.4
2019-03-10T11:33:07.102Z,85.7
2019-03-10T11:38:06.997Z,87.9
2019-03-10T11:43:07.250Z,89.2
2019-03-10T11:48:07.068Z,88.9
2019-03-10T11:53:18.229Z,89.3
2019-03-10T11:58:07.005Z,89.1
2019-03-10T12:03:08.022Z,88.9
2019-03-10T12:08:07.002Z,88.8
2019-03-10T12:13:09.697Z,88.7
2019-03-10T12:18:07.037Z,88.7
2019-03-10T12:23:07.047Z,87.9
2019-03-10T12:28:07.524Z,88.2
2019-03-10T12:33:07.017Z,87.5
2019-03-10T12:38:07.146Z,87.1
2019-03-10T12:43:08.029Z,87.8
2019-03-10T12:48:07.155Z,87
2019-03-10T12:53:07.042Z,86.8
2019-03-10T12:58:07.050Z,87.1
2019-03-10T13:03:07.467Z,87.2
2019-03-10T13:08:07.188Z,87
2019-03-10T13:13:07.017Z,86.2
2019-03-10T13:18:07.062Z,86.9
2019-03-10T13:23:07.550Z,87.1
2019-03-10T13:28:07.071Z,87.1
2019-03-10T13:33:07.073Z,86
2019-03-10T13:38:07.117Z,87.2
2019-03-10T13:43:07.092Z,87.4
2019-03-10T13:48:07.116Z,86.2
2019-03-10T13:53:07.085Z,86.5
2019-03-10T13:58:07.082Z,86.1
2019-03-10T14:03:07.092Z,83.9
2019-03-10T14:08:07.122Z,80
2019-03-10T14:13:07.140Z,79.3
2019-03-10T14:18:07.108Z,78.9
2019-03-10T14:23:07.144Z,78.5
2019-03-10T14:28:07.146Z,75
2019-03-10T14:33:07.123Z,73.9
2019-03-10T14:38:07.235Z,71.9
2019-03-10T14:43:07.137Z,71.9
2019-03-10T14:48:07.572Z,71
2019-03-10T14:53:07.161Z,71.1
2019-03-10T14:58:10.062Z,70.2
2019-03-10T15:03:07.572Z,68.7
2019-03-10T15:08:07.097Z,70
2019-03-10T15:13:07.113Z,69.6
2019-03-10T15:18:07.713Z,69.4
2019-03-10T15:23:08.378Z,69.1
2019-03-10T15:28:07.082Z,70.5
2019-03-10T15:33:07.157Z,69.5
2019-03-10T15:38:07.225Z,69
2019-03-10T15:43:07.173Z,69.7
2019-03-10T15:48:07.192Z,69.1
2019-03-10T15:53:07.152Z,67.7
2019-03-10T15:58:07.233Z,67.4
2019-03-10T16:03:07.704Z,67
2019-03-10T16:08:07.223Z,66.7
2019-03-10T16:13:07.148Z,64.9
2019-03-10T16:18:07.149Z,64.6
2019-03-10T16:23:07.189Z,62.2
2019-03-10T16:28:07.379Z,62.5
2019-03-10T16:33:07.159Z,62.1
2019-03-10T16:38:07.194Z,62.5
2019-03-10T16:43:07.154Z,60.3
2019-03-10T16:48:07.680Z,59.4
2019-03-10T16:53:08.300Z,58
2019-03-10T16:58:07.485Z,56.6
2019-03-10T17:03:07.156Z,66.8
2019-03-10T17:08:07.227Z,72.7
2019-03-10T17:13:08.247Z,73.8
2019-03-10T17:18:07.217Z,73.9
2019-03-10T17:23:07.187Z,68.6
2019-03-10T17:28:07.213Z,67.7
2019-03-10T17:33:07.364Z,67.8
2019-03-10T17:38:08.535Z,67.7
2019-03-10T17:43:08.318Z,68.9
2019-03-10T17:48:07.317Z,70.1
2019-03-10T17:53:10.268Z,70.2
2019-03-10T17:58:07.751Z,71.4
2019-03-10T18:03:07.825Z,69
2019-03-10T18:08:07.327Z,67.7
2019-03-10T18:13:07.311Z,66.8
2019-03-10T18:18:10.437Z,66.1
2019-03-10T18:23:07.242Z,64
2019-03-10T18:28:07.221Z,67.8
2019-03-10T18:33:07.246Z,69.9
2019-03-10T18:38:07.242Z,71.5
2019-03-10T18:43:07.242Z,70.7
2019-03-10T18:48:07.236Z,67.9
2019-03-10T18:53:07.248Z,65.9
2019-03-10T18:58:08.300Z,66.4
2019-03-10T19:03:07.298Z,67.3
2019-03-10T19:08:07.546Z,67.2
2019-03-10T19:13:07.471Z,66.9
2019-03-10T19:18:07.336Z,67.3
2019-03-10T19:23:07.326Z,70.6
2019-03-10T19:28:07.420Z,72.5
2019-03-10T19:33:07.339Z,72.9
2019-03-10T19:38:07.296Z,73
2019-03-10T19:43:07.340Z,71.1
2019-03-10T19:48:07.423Z,70.2
2019-03-10T19:53:07.348Z,68.7
2019-03-10T19:58:07.446Z,67.8
2019-03-10T20:03:09.955Z,65.7
2019-03-10T20:08:07.490Z,65.5
2019-03-10T20:13:10.728Z,62.6
2019-03-10T20:18:07.796Z,61
2019-03-10T20:23:07.531Z,57.4
2019-03-10T20:28:09.659Z,56.8
2019-03-10T20:33:07.474Z,56.3
2019-03-10T20:38:07.713Z,55.4
2019-03-10T20:43:07.314Z,55.4
2019-03-10T20:48:07.349Z,56
2019-03-10T20:53:07.319Z,54.4
2019-03-10T20:58:07.307Z,55
2019-03-10T21:03:07.361Z,56.9
2019-03-10T21:08:07.307Z,57.2
2019-03-10T21:13:10.068Z,57
2019-03-10T21:18:07.352Z,57.3
2019-03-10T21:23:07.317Z,57.4
2019-03-10T21:28:07.348Z,57.3
2019-03-10T21:33:07.321Z,57
2019-03-10T21:38:07.269Z,56.2
2019-03-10T21:43:07.475Z,55.8
2019-03-10T21:48:07.515Z,56.3
2019-03-10T21:53:07.404Z,55.4
2019-03-10T21:58:07.463Z,55.8
2019-03-10T22:03:07.336Z,55.7
2019-03-10T22:08:07.263Z,54.6
2019-03-10T22:13:07.327Z,55.4
2019-03-10T22:18:07.348Z,55.3
2019-03-10T22:23:07.328Z,55
2019-03-10T22:28:07.326Z,54.5
2019-03-10T22:33:07.335Z,54.7
2019-03-10T22:38:07.328Z,54.3
2019-03-10T22:43:07.484Z,57.8
2019-03-10T22:48:07.517Z,59
2019-03-10T22:53:07.551Z,60.7
2019-03-10T22:58:07.472Z,63.2
2019-03-10T23:03:07.498Z,68.5
2019-03-10T23:08:07.560Z,68.5
2019-03-10T23:13:07.341Z,66.8
2019-03-10T23:18:07.505Z,66.2
2019-03-10T23:23:07.554Z,64.2
2019-03-10T23:28:07.465Z,64.6
2019-03-10T23:33:07.518Z,64
2019-03-10T23:38:07.368Z,60.1
2019-03-10T23:43:07.583Z,60.4
2019-03-10T23:48:07.530Z,59.4
2019-03-10T23:53:07.369Z,59.1
2019-03-10T23:58:07.600Z,59.1
